Shanghai Express — DPCK — position and weather

sailwx.info

Track history (hours):
 
Tides and Currents Weather Stations Pressure Air Temp Water Temp Dewpoint Dewpoint Depression Visibility Wind Speed Wind Dir Waves Ship Positions

Shanghai Express

Last reported at 2016-Dec-08 06:00 UTC. Time now 2016-Dec-08 08:00 UTC.
Position N 40°30' W 039°24'.

Length 320.6 m; beam 42.8 m; draft 14.5 m.

Type: Ship. MMSI: 211367460.

Wind from 310 at 15 knots

Barometer 1006.5 mb
Air temperature 13.0 ° C
Visibility: greater than 5.4 NM
Dewpoint 9.4 ° C
Water temperature 19.0 ° C

Date/timePositionNaut miles runAvg speedWind from/ knotsBaromVisibWave heightAir tempDewpointWater temp
2016-Dec-08 06:00N 40°30' W 039°24'18615.5 310 / 151006.5 5.4 13.0 9.419.0
2016-Dec-07 18:00N 42°00' W 043°00'9015.0 310 / 251003.510.8 11.0 6.318.0
2016-Dec-07 12:00N 42°12' W 045°00'8914.8 300 / 201004.910.8 8.0 2.619.0
2016-Dec-07 06:00N 42°12' W 047°00'18215.2 310 / 151004.5 5.4 8.0 6.017.0
2016-Dec-06 18:00N 42°18' W 051°06'8914.8 310 / 161004.510.8 6.4-0.711.0
2016-Dec-06 12:00N 42°18' W 053°06'8414.1 310 / 201006.210.8 7.0 2.618.0
2016-Dec-06 06:00N 42°18' W 055°00'21017.5 310 / 261008.0 5.4 5.8 1.217.0
2016-Dec-05 18:00N 43°12' W 059°36'   340 / 251012.510.8 4.0 1.711.0
2016-Dec-02 15:04N 36°49' W 075°46'5 9.4
2016-Dec-02 14:32N 36°51' W 075°51'9 9.1
2016-Dec-02 13:33N 36°57' W 076°00'1413.8
2016-Dec-02 12:33N 37°00' W 076°17'6 5.8
2016-Dec-02 11:34N 36°55' W 076°20'0 0.0
2016-Dec-02 10:32N 36°55' W 076°20'0 0.0
2016-Dec-02 09:31N 36°55' W 076°20'0 0.0
2016-Dec-02 08:31N 36°55' W 076°20'0 0.0
2016-Dec-02 07:34N 36°55' W 076°20'0 0.0
2016-Dec-02 06:33N 36°55' W 076°20'0 0.0
2016-Dec-02 05:33N 36°55' W 076°20'0 0.0
2016-Dec-02 04:32N 36°55' W 076°20'0 0.0
2016-Dec-02 03:32N 36°55' W 076°20'0 0.0
2016-Dec-02 02:13N 36°55' W 076°20'0 0.0
2016-Dec-02 01:16N 36°55' W 076°20'0 0.0
2016-Dec-02 00:33N 36°55' W 076°20'0 0.0
2016-Dec-01 22:30N 36°55' W 076°20'0 0.0
2016-Dec-01 20:26N 36°55' W 076°20'0 0.0
2016-Dec-01 19:28N 36°55' W 076°20'0 0.0
2016-Dec-01 18:31N 36°55' W 076°20'0 0.0
2016-Dec-01 17:33N 36°55' W 076°20'0 0.0
2016-Dec-01 16:33N 36°55' W 076°20'1 1.1
2016-Dec-01 15:33N 36°56' W 076°20'1110.9
2016-Dec-01 14:33N 36°59' W 076°07'1111.4
2016-Dec-01 13:33N 36°54' W 075°54'9 9.3
2016-Dec-01 12:33N 36°49' W 075°44'368 8.6
2016-Nov-29 17:33N 31°52' W 080°08'2010.1
2016-Nov-29 15:33N 31°55' W 080°32'9 9.2
2016-Nov-29 14:33N 31°58' W 080°42'1211.5
2016-Nov-29 13:32N 32°02' W 080°55'8 8.0
2016-Nov-29 12:33N 32°05' W 081°04'4 4.3
2016-Nov-29 11:33N 32°07' W 081°08'0 0.0
2016-Nov-29 10:30N 32°07' W 081°08'0 0.0
2016-Nov-29 09:30N 32°07' W 081°08'0 0.0
2016-Nov-29 08:29N 32°07' W 081°08'0 0.0
2016-Nov-29 07:29N 32°07' W 081°08'0 0.0
2016-Nov-29 06:28N 32°07' W 081°08'0 0.0
2016-Nov-29 05:28N 32°07' W 081°08'0 0.0
2016-Nov-29 04:28N 32°07' W 081°08'0 0.0
2016-Nov-29 03:33N 32°07' W 081°08'0 0.0
2016-Nov-29 02:33N 32°07' W 081°08'0 0.0
2016-Nov-29 01:32N 32°07' W 081°08'0 0.0
2016-Nov-29 00:32N 32°07' W 081°08'0 0.0
2016-Nov-28 23:31N 32°07' W 081°08'0 0.0
2016-Nov-28 22:31N 32°07' W 081°08'0 0.0
2016-Nov-28 21:31N 32°07' W 081°08'0 0.0
2016-Nov-28 20:30N 32°07' W 081°08'0 0.0
2016-Nov-28 19:30N 32°07' W 081°08'0 0.0
2016-Nov-28 18:29N 32°07' W 081°08'0 0.0
2016-Nov-28 17:29N 32°07' W 081°08'0 0.0
2016-Nov-28 16:28N 32°07' W 081°08'0 0.2
2016-Nov-28 15:33N 32°08' W 081°08'2 2.4
2016-Nov-28 14:33N 32°06' W 081°06'6 6.5
2016-Nov-28 13:34N 32°05' W 080°59'1211.5
2016-Nov-28 12:34N 31°59' W 080°47'10 9.7
2016-Nov-28 11:33N 31°57' W 080°35'9 9.3
2016-Nov-28 10:33N 31°59' W 080°25'  
Track history (hours):
 
Tides and Currents Weather Stations Pressure Air Temp Water Temp Dewpoint Dewpoint Depression Visibility Wind Speed Wind Dir Waves Ship Positions

Shanghai Express

Last reported at 2016-Dec-08 06:00 UTC. Time now 2016-Dec-08 08:00 UTC.
Position N 40°30' W 039°24'.

Length 320.6 m; beam 42.8 m; draft 14.5 m.

Type: Ship. MMSI: 211367460.

Wind from 310 at 15 knots

Barometer 1006.5 mb
Air temperature 13.0 ° C
Visibility: greater than 5.4 NM
Dewpoint 9.4 ° C
Water temperature 19.0 ° C

Date/timePositionNaut miles runAvg speedWind from/ knotsBaromVisibWave heightAir tempDewpointWater temp
2016-Dec-08 06:00N 40°30' W 039°24'18615.5 310 / 151006.5 5.4 13.0 9.419.0
2016-Dec-07 18:00N 42°00' W 043°00'9015.0 310 / 251003.510.8 11.0 6.318.0
2016-Dec-07 12:00N 42°12' W 045°00'8914.8 300 / 201004.910.8 8.0 2.619.0
2016-Dec-07 06:00N 42°12' W 047°00'18215.2 310 / 151004.5 5.4 8.0 6.017.0
2016-Dec-06 18:00N 42°18' W 051°06'8914.8 310 / 161004.510.8 6.4-0.711.0
2016-Dec-06 12:00N 42°18' W 053°06'8414.1 310 / 201006.210.8 7.0 2.618.0
2016-Dec-06 06:00N 42°18' W 055°00'21017.5 310 / 261008.0 5.4 5.8 1.217.0
2016-Dec-05 18:00N 43°12' W 059°36'   340 / 251012.510.8 4.0 1.711.0
2016-Dec-02 15:04N 36°49' W 075°46'5 9.4
2016-Dec-02 14:32N 36°51' W 075°51'9 9.1
2016-Dec-02 13:33N 36°57' W 076°00'1413.8
2016-Dec-02 12:33N 37°00' W 076°17'6 5.8
2016-Dec-02 11:34N 36°55' W 076°20'0 0.0
2016-Dec-02 10:32N 36°55' W 076°20'0 0.0
2016-Dec-02 09:31N 36°55' W 076°20'0 0.0
2016-Dec-02 08:31N 36°55' W 076°20'0 0.0
2016-Dec-02 07:34N 36°55' W 076°20'0 0.0
2016-Dec-02 06:33N 36°55' W 076°20'0 0.0
2016-Dec-02 05:33N 36°55' W 076°20'0 0.0
2016-Dec-02 04:32N 36°55' W 076°20'0 0.0
2016-Dec-02 03:32N 36°55' W 076°20'0 0.0
2016-Dec-02 02:13N 36°55' W 076°20'0 0.0
2016-Dec-02 01:16N 36°55' W 076°20'0 0.0
2016-Dec-02 00:33N 36°55' W 076°20'0 0.0
2016-Dec-01 22:30N 36°55' W 076°20'0 0.0
2016-Dec-01 20:26N 36°55' W 076°20'0 0.0
2016-Dec-01 19:28N 36°55' W 076°20'0 0.0
2016-Dec-01 18:31N 36°55' W 076°20'0 0.0
2016-Dec-01 17:33N 36°55' W 076°20'0 0.0
2016-Dec-01 16:33N 36°55' W 076°20'1 1.1
2016-Dec-01 15:33N 36°56' W 076°20'1110.9
2016-Dec-01 14:33N 36°59' W 076°07'1111.4
2016-Dec-01 13:33N 36°54' W 075°54'9 9.3
2016-Dec-01 12:33N 36°49' W 075°44'368 8.6
2016-Nov-29 17:33N 31°52' W 080°08'2010.1
2016-Nov-29 15:33N 31°55' W 080°32'9 9.2
2016-Nov-29 14:33N 31°58' W 080°42'1211.5
2016-Nov-29 13:32N 32°02' W 080°55'8 8.0
2016-Nov-29 12:33N 32°05' W 081°04'4 4.3
2016-Nov-29 11:33N 32°07' W 081°08'0 0.0
2016-Nov-29 10:30N 32°07' W 081°08'0 0.0
2016-Nov-29 09:30N 32°07' W 081°08'0 0.0
2016-Nov-29 08:29N 32°07' W 081°08'0 0.0
2016-Nov-29 07:29N 32°07' W 081°08'0 0.0
2016-Nov-29 06:28N 32°07' W 081°08'0 0.0
2016-Nov-29 05:28N 32°07' W 081°08'0 0.0
2016-Nov-29 04:28N 32°07' W 081°08'0 0.0
2016-Nov-29 03:33N 32°07' W 081°08'0 0.0
2016-Nov-29 02:33N 32°07' W 081°08'0 0.0
2016-Nov-29 01:32N 32°07' W 081°08'0 0.0
2016-Nov-29 00:32N 32°07' W 081°08'0 0.0
2016-Nov-28 23:31N 32°07' W 081°08'0 0.0
2016-Nov-28 22:31N 32°07' W 081°08'0 0.0
2016-Nov-28 21:31N 32°07' W 081°08'0 0.0
2016-Nov-28 20:30N 32°07' W 081°08'0 0.0
2016-Nov-28 19:30N 32°07' W 081°08'0 0.0
2016-Nov-28 18:29N 32°07' W 081°08'0 0.0
2016-Nov-28 17:29N 32°07' W 081°08'0 0.0
2016-Nov-28 16:28N 32°07' W 081°08'0 0.2
2016-Nov-28 15:33N 32°08' W 081°08'2 2.4
2016-Nov-28 14:33N 32°06' W 081°06'6 6.5
2016-Nov-28 13:34N 32°05' W 080°59'1211.5
2016-Nov-28 12:34N 31°59' W 080°47'10 9.7
2016-Nov-28 11:33N 31°57' W 080°35'9 9.3
2016-Nov-28 10:33N 31°59' W 080°25'  

Dump ship's entire track history